Flight Track Log - Related Links

Times and Time Zones

All times are in EDT time to prevent confusion due to time zone crossing. See the RAX81 flight status page for this flight to view local times or setup timezone preferences in your user account.


Time Position Orientation Groundspeed Altitude Reporting Facility
EDT Latitude Longitude Course Direction KTS MPH feet Rate Location/Type
Thu 04:49:03 AM 39.9000 -75.1667 64° Northeast 156 180 2,100  Level Philadelphia TRACON
Thu 04:50:03 AM 39.9333 -75.1167 49° Northeast 170 196 3,600 1,400 Climbing Philadelphia TRACON
Thu 04:51:03 AM 39.9833 -75.1000 14° North 171 197 4,900 700 Climbing Philadelphia TRACON
Thu 04:52:03 AM 40.0333 -75.0667 27° Northeast 199 229 5,000 50 Climbing Philadelphia TRACON
Thu 04:53:03 AM 40.0833 -75.0333 27° Northeast 202 232 5,000  Level Philadelphia TRACON
Thu 04:54:03 AM 40.1333 -75.0000 27° Northeast 197 227 5,000  Level Philadelphia TRACON
Thu 04:56:23 AM 40.2500 -74.9333 24° Northeast 213 245 5,000  Level New York TRACON
Thu 04:58:23 AM 40.3333 -74.8333 42° Northeast 205 236 5,000 -67 Level New York TRACON
Thu 04:59:23 AM 40.3667 -74.7833 49° Northeast 206 237 4,800 -500 Descending New York TRACON
Thu 05:01:00 AM 40.4677 -74.7581 11° North  Level FlightAware Approximate
Thu 05:02:23 AM 40.4833 -74.6167 11° North 204 235 3,000  Level New York TRACON
Thu 05:03:23 AM 40.5167 -74.5500 57° Northeast 212 244 3,000 -150 Level New York TRACON
Thu 05:04:23 AM 40.5500 -74.4833 57° Northeast 220 253 2,700 -444 Descending New York TRACON
Thu 05:05:11 AM 40.6000 -74.4333 37° Northeast 229 264 2,200 -389 Descending New York TRACON
Thu 05:06:11 AM 40.6333 -74.3833 49° Northeast 222 255 2,000 -105 Descending New York TRACON
Thu 05:07:05 AM 40.6667 -74.3333 49° Northeast 219 252 2,000  Level New York TRACON
Thu 05:08:05 AM 40.7167 -74.2667 45° Northeast 212 244 2,000 -250 Level New York TRACON
Thu 05:09:05 AM 40.7500 -74.2167 49° Northeast 189 217 1,500 -250 Descending New York TRACON
Thu 05:10:05 AM 40.7833 -74.1667 49° Northeast 155 178 1,500  Level New York TRACON
Thu 05:10:59 AM 40.8000 -74.1333 57° Northeast 125 144 1,500 -368 Level New York TRACON
Thu 05:11:59 AM 40.8167 -74.1000 57° Northeast 127 146 800 -700 Descending New York TRACON
Thu 05:13:00 AM 40.8500 -74.0500 57° Northeast  Level FlightAware Approximate

Login

Don't have an account? Register now (free) for customized features, flight alerts, and more!